Terminal Aerodrome Forecast
Issued by NWS Grand Rapids, MI

Home | Current Version | Previous Version | Text Only | Print | Product List | Glossary On
Versions: 1 2 3 4 5 6 7 8 9 10 11 12 13 14 15
009
FTUS43 KGRR 010540
TAFGRR
TAF
KGRR 010540Z 0106/0206 10006KT P6SM BKN250
     FM011300 13007KT P6SM BKN130
     FM011800 18007KT P6SM VCTS BKN070CB
     FM020000 22005KT P6SM OVC090=

USA.gov is the U.S. government's official web portal to all federal, state and local government web resources and services.